sensor_id;sensor_type;location;lat;lon;timestamp;P1;durP1;ratioP1;P2;durP2;ratioP2
83288;SDS011;73193;50.866;5.420;2023-10-13T16:08:31;9.70;;;3.78;;
83288;SDS011;73193;50.866;5.420;2023-10-13T16:11:06;13.00;;;4.53;;
83288;SDS011;73193;50.866;5.420;2023-10-13T16:13:42;11.82;;;4.25;;
83288;SDS011;73193;50.866;5.420;2023-10-13T16:16:15;12.50;;;3.90;;
83288;SDS011;73193;50.866;5.420;2023-10-13T16:22:31;5.55;;;3.78;;
83288;SDS011;73193;50.866;5.420;2023-10-13T16:24:57;6.35;;;4.07;;
83288;SDS011;73193;50.866;5.420;2023-10-13T16:27:22;8.63;;;4.40;;
83288;SDS011;73193;50.866;5.420;2023-10-13T16:29:48;7.45;;;4.45;;
83288;SDS011;73193;50.866;5.420;2023-10-13T16:32:14;6.75;;;4.00;;
83288;SDS011;73193;50.866;5.420;2023-10-13T16:34:39;6.25;;;4.10;;
83288;SDS011;73193;50.866;5.420;2023-10-13T16:37:05;9.30;;;4.82;;
83288;SDS011;73193;50.866;5.420;2023-10-13T16:39:33;8.88;;;4.70;;
83288;SDS011;73193;50.866;5.420;2023-10-13T16:41:58;9.80;;;3.97;;
83288;SDS011;73193;50.866;5.420;2023-10-13T16:44:24;9.45;;;4.50;;
83288;SDS011;73193;50.866;5.420;2023-10-13T16:55:35;8.38;;;4.50;;
83288;SDS011;73193;50.866;5.420;2023-10-13T16:58:02;8.15;;;4.40;;
83288;SDS011;73193;50.866;5.420;2023-10-13T17:00:28;6.65;;;4.53;;
83288;SDS011;73193;50.866;5.420;2023-10-13T17:02:54;6.85;;;4.40;;
83288;SDS011;73193;50.866;5.420;2023-10-13T17:05:21;9.57;;;4.88;;
83288;SDS011;73193;50.866;5.420;2023-10-13T22:40:38;4.28;;;2.92;;
83288;SDS011;73193;50.866;5.420;2023-10-13T22:43:05;6.20;;;3.72;;
83288;SDS011;73193;50.866;5.420;2023-10-13T22:45:32;7.35;;;3.95;;
83288;SDS011;73193;50.866;5.420;2023-10-13T22:47:57;5.28;;;3.50;;
83288;SDS011;73193;50.866;5.420;2023-10-13T22:50:23;5.82;;;4.22;;
83288;SDS011;73193;50.866;5.420;2023-10-13T22:52:52;4.47;;;3.33;;
83288;SDS011;73193;50.866;5.420;2023-10-13T22:57:55;2.85;;;2.25;;
83288;SDS011;73193;50.866;5.420;2023-10-13T23:00:22;4.22;;;2.42;;
83288;SDS011;73193;50.866;5.420;2023-10-13T23:03:12;8.25;;;2.63;;
83288;SDS011;73193;50.866;5.420;2023-10-13T23:05:39;4.53;;;2.13;;
83288;SDS011;73193;50.866;5.420;2023-10-13T23:20:26;6.18;;;4.53;;
83288;SDS011;73193;50.866;5.420;2023-10-13T23:22:54;9.43;;;4.85;;
83288;SDS011;73193;50.866;5.420;2023-10-13T23:25:20;7.18;;;4.10;;
83288;SDS011;73193;50.866;5.420;2023-10-13T23:27:46;4.57;;;3.05;;
83288;SDS011;73193;50.866;5.420;2023-10-13T23:30:12;9.32;;;3.55;;
83288;SDS011;73193;50.866;5.420;2023-10-13T23:32:38;6.85;;;3.40;;
83288;SDS011;73193;50.866;5.420;2023-10-13T23:35:04;7.97;;;3.40;;
83288;SDS011;73193;50.866;5.420;2023-10-13T23:37:30;6.72;;;4.05;;
83288;SDS011;73193;50.866;5.420;2023-10-13T23:39:56;8.25;;;4.57;;
83288;SDS011;73193;50.866;5.420;2023-10-13T23:42:25;8.45;;;4.70;;
83288;SDS011;73193;50.866;5.420;2023-10-13T23:44:51;7.97;;;5.03;;
83288;SDS011;73193;50.866;5.420;2023-10-13T23:47:16;7.55;;;4.82;;
83288;SDS011;73193;50.866;5.420;2023-10-13T23:49:52;7.03;;;4.88;;
83288;SDS011;73193;50.866;5.420;2023-10-13T23:52:18;9.40;;;5.00;;
83288;SDS011;73193;50.866;5.420;2023-10-13T23:54:45;10.38;;;5.95;;
83288;SDS011;73193;50.866;5.420;2023-10-13T23:57:19;10.00;;;6.28;;
83288;SDS011;73193;50.866;5.420;2023-10-13T23:59:48;9.20;;;5.97;;
